createdAt,value
2022-12-28T00:01:24.114Z,101077.84
2022-12-28T00:03:51.888Z,101035.50
2022-12-28T00:06:19.415Z,101062.69
2022-12-28T00:08:46.283Z,101032.81
2022-12-28T00:11:25.334Z,100994.66
2022-12-28T00:13:59.417Z,101035.91
2022-12-28T00:16:36.989Z,101039.91
2022-12-28T00:19:07.174Z,101033.16
2022-12-28T00:21:33.948Z,101002.38
2022-12-28T00:24:01.453Z,101024.88
2022-12-28T00:26:30.299Z,101028.78
2022-12-28T00:29:03.700Z,101023.50
2022-12-28T00:31:31.428Z,101020.09
2022-12-28T00:33:57.949Z,101009.88
2022-12-28T00:37:11.290Z,100987.50
2022-12-28T00:39:11.837Z,101013.44
2022-12-28T00:41:38.583Z,101009.00
2022-12-28T00:44:05.212Z,100989.78
2022-12-28T00:46:31.705Z,100990.47
2022-12-28T00:48:58.169Z,100987.75
2022-12-28T00:51:24.600Z,100964.34
2022-12-28T00:53:51.094Z,100995.81
2022-12-28T00:56:20.411Z,100986.75
2022-12-28T00:58:47.350Z,100982.53
2022-12-28T01:01:21.363Z,100977.41
2022-12-28T01:03:48.450Z,100977.66
2022-12-28T01:06:17.851Z,100973.38
2022-12-28T01:08:44.636Z,100976.75
2022-12-28T01:11:20.970Z,100980.16
2022-12-28T01:13:48.348Z,100980.50
2022-12-28T01:16:16.039Z,100991.31
2022-12-28T01:18:43.303Z,100973.53
2022-12-28T01:21:12.061Z,100973.69
2022-12-28T01:23:38.927Z,100960.22
2022-12-28T01:26:05.736Z,100939.44
2022-12-28T01:28:32.456Z,100966.22
2022-12-28T01:31:04.527Z,100902.09
2022-12-28T01:33:31.210Z,100941.50
2022-12-28T01:35:57.829Z,100932.03
2022-12-28T01:38:24.290Z,100920.53
2022-12-28T01:40:51.003Z,100908.78
2022-12-28T01:43:29.833Z,100892.31
2022-12-28T01:45:57.529Z,100870.06
2022-12-28T01:48:24.809Z,100915.59
2022-12-28T01:50:52.256Z,100917.38
2022-12-28T01:53:19.991Z,100912.34
2022-12-28T01:55:47.835Z,100906.66
2022-12-28T01:58:24.882Z,100911.16
2022-12-28T02:00:51.475Z,100893.16
2022-12-28T02:03:27.936Z,100851.84
2022-12-28T02:05:56.616Z,100883.31
2022-12-28T02:08:28.607Z,100870.53
2022-12-28T02:10:55.230Z,100874.94
2022-12-28T02:13:23.013Z,100874.63
2022-12-28T02:15:49.879Z,100879.34
2022-12-28T02:18:17.729Z,100871.59
2022-12-28T02:20:56.595Z,100875.34
2022-12-28T02:23:42.576Z,100859.78
2022-12-28T02:26:46.067Z,100854.63
2022-12-28T02:29:43.272Z,100852.22
2022-12-28T02:32:11.552Z,100848.25
2022-12-28T02:34:46.984Z,100836.25
2022-12-28T02:37:18.383Z,100828.88
2022-12-28T02:39:50.369Z,100820.63
2022-12-28T02:42:17.669Z,100805.63
2022-12-28T02:45:02.859Z,100769.16
2022-12-28T02:47:47.813Z,100786.03
2022-12-28T02:50:16.105Z,100767.09
2022-12-28T02:53:07.238Z,100780.16
2022-12-28T02:56:07.987Z,100787.16
2022-12-28T02:59:03.807Z,100753.13
2022-12-28T03:01:36.416Z,100753.69
2022-12-28T03:04:23.880Z,100738.78
2022-12-28T03:07:39.528Z,100743.97
2022-12-28T03:10:17.417Z,100753.69
2022-12-28T03:13:33.433Z,100748.28
2022-12-28T03:16:05.296Z,100745.50
2022-12-28T03:18:52.044Z,100713.72
2022-12-28T03:21:37.685Z,100710.91
2022-12-28T03:24:24.027Z,100726.31
2022-12-28T03:27:10.641Z,100755.19
2022-12-28T03:30:12.930Z,100711.91
2022-12-28T03:32:39.481Z,100722.78
2022-12-28T03:35:06.327Z,100711.72
2022-12-28T03:38:00.761Z,100678.66
2022-12-28T03:40:27.762Z,100695.31
2022-12-28T03:43:14.013Z,100692.66
2022-12-28T03:45:55.261Z,100677.59
2022-12-28T03:48:22.831Z,100659.00
2022-12-28T03:50:49.730Z,100654.81
2022-12-28T03:53:23.044Z,100690.44
2022-12-28T03:55:49.524Z,100667.69
2022-12-28T03:58:16.031Z,100664.69
2022-12-28T04:00:42.573Z,100635.31
2022-12-28T04:03:09.037Z,100670.19
2022-12-28T04:05:35.540Z,100695.31
2022-12-28T04:08:02.029Z,100603.75
2022-12-28T04:10:28.515Z,100589.44
2022-12-28T04:12:56.767Z,100648.50
2022-12-28T04:15:23.320Z,100633.09
2022-12-28T04:17:49.799Z,100649.38
2022-12-28T04:20:16.373Z,100656.44
2022-12-28T04:22:43.187Z,100572.38
2022-12-28T04:25:09.795Z,100593.66
2022-12-28T04:27:36.397Z,100625.50
2022-12-28T04:30:03.004Z,100624.84
2022-12-28T04:32:29.495Z,100609.84
2022-12-28T04:34:55.976Z,100565.94
2022-12-28T04:37:22.548Z,100550.78
2022-12-28T04:39:56.022Z,100610.78
2022-12-28T04:42:25.485Z,100607.09
2022-12-28T04:44:51.965Z,100589.13
2022-12-28T04:47:19.154Z,100588.72
2022-12-28T04:49:45.645Z,100578.97
2022-12-28T04:52:12.452Z,100584.69
2022-12-28T04:54:39.082Z,100584.19
2022-12-28T04:57:06.625Z,100579.94
2022-12-28T04:59:33.089Z,100580.69
2022-12-28T05:01:59.658Z,100582.56
2022-12-28T05:04:26.533Z,100555.75
2022-12-28T05:06:53.025Z,100571.91
2022-12-28T05:09:19.606Z,100573.94
2022-12-28T05:11:47.043Z,100590.19
2022-12-28T05:14:13.682Z,100574.44
2022-12-28T05:16:40.497Z,100590.78
2022-12-28T05:19:07.011Z,100588.81
2022-12-28T05:21:33.787Z,100608.16
2022-12-28T05:24:00.250Z,100581.53
2022-12-28T05:26:29.062Z,100557.13
2022-12-28T05:28:56.769Z,100569.88
2022-12-28T05:31:23.594Z,100585.09
2022-12-28T05:33:50.594Z,100578.69
2022-12-28T05:36:19.679Z,100588.06
2022-12-28T05:38:47.459Z,100593.75
2022-12-28T05:41:19.586Z,100569.22
2022-12-28T05:43:46.692Z,100585.63
2022-12-28T05:46:19.442Z,100552.19
2022-12-28T05:48:46.878Z,100583.31
2022-12-28T05:51:16.119Z,100575.25
2022-12-28T05:53:43.003Z,100563.22
2022-12-28T05:56:16.831Z,100565.25
2022-12-28T05:58:44.350Z,100539.44
2022-12-28T06:01:12.768Z,100542.31
2022-12-28T06:03:39.697Z,100566.31
2022-12-28T06:06:10.389Z,100566.09
2022-12-28T06:08:37.482Z,100536.50
2022-12-28T06:11:06.730Z,100548.53
2022-12-28T06:13:33.751Z,100556.59
2022-12-28T06:16:09.227Z,100561.78
2022-12-28T06:18:36.591Z,100557.66
2022-12-28T06:21:09.064Z,100550.34
2022-12-28T06:23:35.809Z,100546.97
2022-12-28T06:26:04.491Z,100521.53
2022-12-28T06:28:31.005Z,100551.03
2022-12-28T06:31:05.174Z,100550.03
2022-12-28T06:33:31.712Z,100535.59
2022-12-28T06:35:58.443Z,100553.66
2022-12-28T06:38:27.344Z,100544.75
2022-12-28T06:41:12.775Z,100515.56
2022-12-28T06:43:41.775Z,100550.66
2022-12-28T06:46:09.040Z,100558.25
2022-12-28T06:48:36.405Z,100545.38
2022-12-28T06:51:08.562Z,100538.97
2022-12-28T06:53:37.382Z,100544.88
2022-12-28T06:56:09.914Z,100541.78
2022-12-28T06:58:36.417Z,100547.19
2022-12-28T07:01:13.940Z,100554.91
2022-12-28T07:03:40.963Z,100562.94
2022-12-28T07:06:07.642Z,100553.59
2022-12-28T07:08:34.191Z,100542.97
2022-12-28T07:11:09.812Z,100541.78
2022-12-28T07:13:36.655Z,100547.91
2022-12-28T07:16:08.406Z,100547.28
2022-12-28T07:18:35.121Z,100536.72
2022-12-28T07:21:04.082Z,100544.31
2022-12-28T07:23:31.504Z,100501.63
2022-12-28T07:26:03.768Z,100543.25
2022-12-28T07:28:30.503Z,100539.59
2022-12-28T07:30:57.117Z,100535.44
2022-12-28T07:33:23.621Z,100535.44
2022-12-28T07:35:50.101Z,100512.31
2022-12-28T07:38:21.163Z,100483.66
2022-12-28T07:40:48.085Z,100494.38
2022-12-28T07:43:14.585Z,100531.44
2022-12-28T07:45:41.100Z,100531.41
2022-12-28T07:48:07.592Z,100502.16
2022-12-28T07:50:37.743Z,100533.97
2022-12-28T07:53:04.882Z,100531.00
2022-12-28T07:55:32.025Z,100525.63
2022-12-28T07:57:58.627Z,100533.03
2022-12-28T08:00:25.117Z,100527.31
2022-12-28T08:02:55.602Z,100498.19
2022-12-28T08:05:22.061Z,100511.44
2022-12-28T08:07:48.483Z,100476.81
2022-12-28T08:10:15.373Z,100523.06
2022-12-28T08:12:41.811Z,100528.03
2022-12-28T08:15:09.049Z,100528.25
2022-12-28T08:17:37.007Z,100541.38
2022-12-28T08:20:06.791Z,100514.06
2022-12-28T08:22:33.884Z,100466.56
2022-12-28T08:25:00.332Z,100445.41
2022-12-28T08:27:26.776Z,100517.31
2022-12-28T08:29:53.540Z,100525.78
2022-12-28T08:32:20.011Z,100516.06
2022-12-28T08:34:46.534Z,100521.66
2022-12-28T08:37:13.037Z,100519.16
2022-12-28T08:39:39.527Z,100509.38
2022-12-28T08:42:06.027Z,100508.47
2022-12-28T08:44:32.519Z,100474.13
2022-12-28T08:46:59.029Z,100495.41
2022-12-28T08:49:25.584Z,100520.38
2022-12-28T08:51:52.095Z,100518.66
2022-12-28T08:54:18.641Z,100520.00
2022-12-28T08:56:46.567Z,100520.97
2022-12-28T08:59:15.299Z,100520.81
2022-12-28T09:01:44.532Z,100503.47
2022-12-28T09:04:14.064Z,100507.44
2022-12-28T09:06:40.665Z,100508.81
2022-12-28T09:09:08.834Z,100526.81
2022-12-28T09:11:36.305Z,100486.09
2022-12-28T09:14:04.033Z,100527.69
2022-12-28T09:16:30.633Z,100500.56
2022-12-28T09:18:59.159Z,100539.88
2022-12-28T09:21:28.871Z,100538.81
2022-12-28T09:23:55.849Z,100542.25
2022-12-28T09:26:24.999Z,100537.16
2022-12-28T09:28:53.776Z,100536.47
2022-12-28T09:31:21.542Z,100535.94
2022-12-28T09:36:49.865Z,100479.59
2022-12-28T09:39:19.245Z,100539.44
2022-12-28T09:41:56.516Z,100547.59
2022-12-28T09:44:41.826Z,100531.91
2022-12-28T09:47:13.865Z,100528.25
2022-12-28T09:49:46.650Z,100537.41
2022-12-28T09:52:50.946Z,100533.16
2022-12-28T09:55:18.944Z,100530.53
2022-12-28T09:57:51.049Z,100519.78
2022-12-28T10:00:39.628Z,100506.44
2022-12-28T10:03:14.039Z,100525.34
2022-12-28T10:05:40.555Z,100527.88
2022-12-28T10:08:10.978Z,100493.00
2022-12-28T10:10:43.973Z,100511.81
2022-12-28T10:16:20.874Z,100479.66
2022-12-28T10:18:48.569Z,100515.53
2022-12-28T10:21:20.250Z,100506.41
2022-12-28T10:26:40.451Z,100503.13
2022-12-28T10:29:17.138Z,100491.56
2022-12-28T10:31:43.636Z,100496.03
2022-12-28T10:34:22.749Z,100471.97
2022-12-28T10:36:49.655Z,100445.59
2022-12-28T10:39:28.262Z,100483.75
2022-12-28T10:41:56.407Z,100491.19
2022-12-28T10:44:39.369Z,100464.31
2022-12-28T10:47:26.480Z,100481.69
2022-12-28T10:50:18.881Z,100474.00
2022-12-28T10:52:39.641Z,100467.34
2022-12-28T10:55:33.199Z,100463.00
2022-12-28T10:58:33.391Z,100456.56
2022-12-28T11:01:13.293Z,100478.06
2022-12-28T11:04:05.186Z,100451.09
2022-12-28T11:06:35.477Z,100434.22
2022-12-28T11:09:05.145Z,100433.38
2022-12-28T11:11:31.714Z,100422.19
2022-12-28T11:14:30.773Z,100428.31
2022-12-28T11:16:57.796Z,100420.47
2022-12-28T11:19:25.404Z,100426.81
2022-12-28T11:21:52.480Z,100422.72
2022-12-28T11:24:19.642Z,100379.06
2022-12-28T11:26:48.329Z,100354.16
2022-12-28T11:29:17.349Z,100420.91
2022-12-28T11:32:00.307Z,100420.00
2022-12-28T11:34:28.452Z,100407.09
2022-12-28T11:36:55.377Z,100420.22
2022-12-28T11:39:24.909Z,100413.97
2022-12-28T11:42:36.688Z,100406.59
2022-12-28T11:44:41.848Z,100410.91
2022-12-28T11:47:17.324Z,100400.66
2022-12-28T11:49:45.712Z,100397.88
2022-12-28T11:52:15.142Z,100389.22
2022-12-28T11:54:52.364Z,100393.94
2022-12-28T11:57:38.895Z,100401.50
2022-12-28T12:00:23.011Z,100405.84
2022-12-28T12:02:53.005Z,100391.44
2022-12-28T12:05:37.868Z,100391.59
2022-12-28T12:08:10.180Z,100380.63
2022-12-28T12:10:37.103Z,100379.31
2022-12-28T12:13:26.406Z,100370.50
2022-12-28T12:16:05.262Z,100372.97
2022-12-28T12:18:56.061Z,100349.09
2022-12-28T12:21:40.336Z,100373.84
2022-12-28T12:24:27.922Z,100366.47
2022-12-28T12:27:01.562Z,100350.75
2022-12-28T12:29:40.126Z,100366.69
2022-12-28T12:32:15.398Z,100367.03
2022-12-28T12:34:47.416Z,100339.53
2022-12-28T12:37:28.867Z,100357.84
2022-12-28T12:40:20.835Z,100352.78
2022-12-28T12:42:56.426Z,100365.47
2022-12-28T12:45:36.406Z,100347.53
2022-12-28T12:48:14.647Z,100352.13
2022-12-28T12:51:00.156Z,100340.47
2022-12-28T12:53:29.669Z,100345.84
2022-12-28T12:56:02.042Z,100344.91
2022-12-28T12:58:43.806Z,100340.84
2022-12-28T13:01:25.651Z,100343.59
2022-12-28T13:03:53.560Z,100327.69
2022-12-28T13:06:23.031Z,100357.22
2022-12-28T13:09:00.422Z,100311.91
2022-12-28T13:11:30.897Z,100337.50
2022-12-28T13:13:57.401Z,100343.19
2022-12-28T13:16:26.071Z,100332.50
2022-12-28T13:18:57.933Z,100337.44
2022-12-28T13:21:27.484Z,100334.13
2022-12-28T13:23:54.857Z,100290.69
2022-12-28T13:26:30.606Z,100339.41
2022-12-28T13:28:59.682Z,100309.75
2022-12-28T13:31:37.966Z,100308.66
2022-12-28T13:34:16.118Z,100335.84
2022-12-28T13:36:56.415Z,100340.16
2022-12-28T13:39:24.937Z,100343.03
2022-12-28T13:41:57.342Z,100330.41
2022-12-28T13:44:29.821Z,100322.97
2022-12-28T13:47:01.964Z,100331.28
2022-12-28T13:49:32.649Z,100331.22
2022-12-28T13:51:59.135Z,100270.09
2022-12-28T13:54:26.154Z,100317.16
2022-12-28T13:57:14.442Z,100311.34
2022-12-28T13:59:41.073Z,100303.69
2022-12-28T14:02:07.875Z,100304.84
2022-12-28T14:04:52.170Z,100280.69
2022-12-28T14:07:19.861Z,100298.19
2022-12-28T14:09:47.165Z,100248.47
2022-12-28T14:12:14.653Z,100282.91
2022-12-28T14:14:42.019Z,100293.50
2022-12-28T14:17:08.968Z,100232.09
2022-12-28T14:19:36.047Z,100224.75
2022-12-28T14:22:02.769Z,100257.75
2022-12-28T14:24:29.216Z,100218.34
2022-12-28T14:26:57.961Z,100256.31
2022-12-28T14:29:30.822Z,100208.25
2022-12-28T14:31:58.392Z,100241.13
2022-12-28T14:34:28.960Z,100229.53
2022-12-28T14:36:56.273Z,100241.06
2022-12-28T14:39:27.174Z,100230.25
2022-12-28T14:41:54.561Z,100230.91
2022-12-28T14:44:31.129Z,100231.63
2022-12-28T14:46:58.042Z,100237.16
2022-12-28T14:49:30.654Z,100230.00
2022-12-28T14:52:09.286Z,100218.75
2022-12-28T14:54:50.192Z,100209.38
2022-12-28T14:57:28.770Z,100205.47
2022-12-28T15:00:02.226Z,100194.75
2022-12-28T15:02:41.056Z,100201.09
2022-12-28T15:05:32.643Z,100203.09
2022-12-28T15:07:59.965Z,100191.44
2022-12-28T15:10:26.445Z,100168.81
2022-12-28T15:12:54.052Z,100174.06
2022-12-28T15:15:21.704Z,100202.56
2022-12-28T15:17:48.280Z,100162.13
2022-12-28T15:20:15.298Z,100151.84
2022-12-28T15:22:41.802Z,100187.03
2022-12-28T15:25:08.803Z,100169.66
2022-12-28T15:27:35.487Z,100195.63
2022-12-28T15:30:06.327Z,100174.19
2022-12-28T15:32:33.470Z,100133.31
2022-12-28T15:34:59.925Z,100170.25
2022-12-28T15:37:26.423Z,100146.47
2022-12-28T15:39:53.099Z,100159.50
2022-12-28T15:42:19.590Z,100152.72
2022-12-28T15:44:48.448Z,100149.06
2022-12-28T15:47:14.965Z,100140.66
2022-12-28T15:49:41.448Z,100137.38
2022-12-28T15:52:07.911Z,100130.13
2022-12-28T15:54:34.592Z,100092.69
2022-12-28T15:57:01.312Z,100116.13
2022-12-28T15:59:28.099Z,100105.19
2022-12-28T16:01:54.988Z,100123.28
2022-12-28T16:04:21.703Z,100117.03
2022-12-28T16:06:48.213Z,100100.59
2022-12-28T16:09:14.706Z,100113.47
2022-12-28T16:11:41.798Z,100116.50
2022-12-28T16:14:14.164Z,100112.41
2022-12-28T16:16:41.583Z,100084.19
2022-12-28T16:19:08.942Z,100079.47
2022-12-28T16:21:36.115Z,100095.28
2022-12-28T16:24:02.624Z,100036.06
2022-12-28T16:26:29.062Z,100043.34
2022-12-28T16:28:55.748Z,100085.63
2022-12-28T16:31:28.368Z,100071.28
2022-12-28T16:33:57.641Z,100069.25
2022-12-28T16:36:24.391Z,100064.00
2022-12-28T16:38:51.492Z,100054.53
2022-12-28T16:41:18.134Z,100047.91
2022-12-28T16:43:45.430Z,100012.47
2022-12-28T16:46:11.983Z,100036.75
2022-12-28T16:48:39.715Z,100029.41
2022-12-28T16:51:06.473Z,100032.84
2022-12-28T16:53:33.548Z,100046.59
2022-12-28T16:56:01.294Z,100026.22
2022-12-28T16:58:29.253Z,100022.41
2022-12-28T17:00:56.761Z,100014.03
2022-12-28T17:03:23.689Z,100004.13
2022-12-28T17:05:52.343Z,100002.09
2022-12-28T17:08:19.312Z,99951.34
2022-12-28T17:10:46.021Z,99981.59
2022-12-28T17:13:13.218Z,99988.34
2022-12-28T17:15:43.056Z,99985.03
2022-12-28T17:18:09.888Z,99985.34
2022-12-28T17:20:37.378Z,99990.53
2022-12-28T17:23:04.662Z,99968.72
2022-12-28T17:25:32.057Z,99957.06
2022-12-28T17:27:58.890Z,99959.25
2022-12-28T17:30:26.487Z,99936.59
2022-12-28T17:32:53.424Z,99931.72
2022-12-28T17:35:20.271Z,99952.56
2022-12-28T17:37:46.761Z,99948.09
2022-12-28T17:40:13.242Z,99901.41
2022-12-28T17:42:39.709Z,99940.78
2022-12-28T17:45:11.485Z,99956.41
2022-12-28T17:47:38.524Z,99911.63
2022-12-28T17:50:05.508Z,99941.38
2022-12-28T17:52:32.092Z,99943.22
2022-12-28T17:54:58.564Z,99947.16
2022-12-28T17:57:25.016Z,99950.22
2022-12-28T17:59:51.480Z,99932.03
2022-12-28T18:02:18.223Z,99885.50
2022-12-28T18:04:44.886Z,99938.47
2022-12-28T18:07:11.428Z,99927.50
2022-12-28T18:09:37.945Z,99923.22
2022-12-28T18:12:05.014Z,99925.81
2022-12-28T18:14:31.518Z,99926.06
2022-12-28T18:16:58.100Z,99925.16
2022-12-28T18:19:24.733Z,99924.66
2022-12-28T18:21:51.216Z,99912.75
2022-12-28T18:24:20.795Z,99926.72
2022-12-28T18:26:47.570Z,99872.59
2022-12-28T18:29:14.489Z,99854.22
2022-12-28T18:31:41.065Z,99908.44
2022-12-28T18:34:07.696Z,99875.72
2022-12-28T18:36:34.231Z,99906.44
2022-12-28T18:39:02.059Z,99888.81
2022-12-28T18:41:33.732Z,99882.69
2022-12-28T18:44:02.708Z,99863.91
2022-12-28T18:46:29.763Z,99861.19
2022-12-28T18:48:56.666Z,99892.63
2022-12-28T18:51:23.327Z,99854.53
2022-12-28T18:53:50.838Z,99866.81
2022-12-28T18:56:19.538Z,99858.41
2022-12-28T18:58:55.044Z,99852.41
2022-12-28T19:04:10.926Z,99806.00
2022-12-28T19:06:37.716Z,99844.03
2022-12-28T19:09:05.499Z,99828.34
2022-12-28T19:11:32.334Z,99812.75
2022-12-28T19:13:58.961Z,99826.94
2022-12-28T19:16:30.910Z,99827.91
2022-12-28T19:18:59.543Z,99821.34
2022-12-28T19:21:29.057Z,99820.78
2022-12-28T19:23:57.577Z,99812.56
2022-12-28T19:26:24.671Z,99794.88
2022-12-28T19:28:51.617Z,99788.97
2022-12-28T19:31:18.588Z,99774.06
2022-12-28T19:33:45.114Z,99761.22
2022-12-28T19:36:12.172Z,99790.06
2022-12-28T19:38:38.728Z,99786.19
2022-12-28T19:41:07.585Z,99788.78
2022-12-28T19:43:34.263Z,99774.84
2022-12-28T19:46:04.786Z,99740.84
2022-12-28T19:48:31.465Z,99726.09
2022-12-28T19:50:58.013Z,99730.00
2022-12-28T19:53:25.003Z,99767.66
2022-12-28T19:55:56.933Z,99766.78
2022-12-28T19:58:25.424Z,99768.38
2022-12-28T20:00:52.804Z,99759.75
2022-12-28T20:03:19.511Z,99756.28
2022-12-28T20:05:46.131Z,99762.28
2022-12-28T20:08:12.596Z,99755.84
2022-12-28T20:10:39.336Z,99709.97
2022-12-28T20:13:05.770Z,99744.22
2022-12-28T20:15:33.252Z,99764.19
2022-12-28T20:17:59.751Z,99742.22
2022-12-28T20:20:27.613Z,99745.78
2022-12-28T20:22:57.113Z,99739.91
2022-12-28T20:25:23.579Z,99691.75
2022-12-28T20:27:50.217Z,99737.84
2022-12-28T20:30:16.737Z,99747.28
2022-12-28T20:32:45.044Z,99717.97
2022-12-28T20:35:11.959Z,99728.06
2022-12-28T20:37:38.416Z,99727.81
2022-12-28T20:40:05.791Z,99737.25
2022-12-28T20:42:51.083Z,99714.19
2022-12-28T20:45:17.594Z,99702.25
2022-12-28T20:47:44.097Z,99714.63
2022-12-28T20:50:10.705Z,99651.69
2022-12-28T20:52:37.160Z,99668.63
2022-12-28T20:55:03.740Z,99675.34
2022-12-28T20:57:30.479Z,99686.69
2022-12-28T20:59:58.403Z,99711.09
2022-12-28T21:02:24.880Z,99680.25
2022-12-28T21:04:51.371Z,99650.94
2022-12-28T21:07:19.528Z,99688.09
2022-12-28T21:09:50.588Z,99666.91
2022-12-28T21:12:17.461Z,99702.88
2022-12-28T21:14:44.063Z,99674.16
2022-12-28T21:17:10.541Z,99708.47
2022-12-28T21:19:37.028Z,99693.81
2022-12-28T21:22:03.489Z,99697.31
2022-12-28T21:24:30.016Z,99695.38
2022-12-28T21:26:56.503Z,99693.81
2022-12-28T21:29:25.977Z,99688.53
2022-12-28T21:31:52.885Z,99688.22
2022-12-28T21:34:19.609Z,99692.53
2022-12-28T21:36:46.105Z,99704.13
2022-12-28T21:39:12.661Z,99686.81
2022-12-28T21:41:51.611Z,99689.06
2022-12-28T21:44:23.507Z,99680.97
2022-12-28T21:46:51.678Z,99699.38
2022-12-28T21:49:19.519Z,99663.69
2022-12-28T21:51:46.097Z,99686.53
2022-12-28T21:54:16.541Z,99677.97
2022-12-28T21:56:44.707Z,99693.13
2022-12-28T21:59:12.634Z,99682.66
2022-12-28T22:01:59.920Z,99645.97
2022-12-28T22:04:45.624Z,99666.75
2022-12-28T22:07:15.608Z,99668.28
2022-12-28T22:10:01.609Z,99660.91
2022-12-28T22:12:34.312Z,99672.28
2022-12-28T22:15:31.027Z,99669.38
2022-12-28T22:17:59.760Z,99656.31
2022-12-28T22:20:27.949Z,99648.00
2022-12-28T22:22:59.438Z,99642.25
2022-12-28T22:25:27.131Z,99646.00
2022-12-28T22:27:54.321Z,99638.56
2022-12-28T22:30:21.384Z,99603.00
2022-12-28T22:32:47.915Z,99652.66
2022-12-28T22:35:14.715Z,99619.97
2022-12-28T22:37:42.743Z,99626.91
2022-12-28T22:40:10.242Z,99632.88
2022-12-28T22:42:42.136Z,99632.97
2022-12-28T22:45:10.851Z,99625.00
2022-12-28T22:47:37.320Z,99618.81
2022-12-28T22:50:04.282Z,99619.66
2022-12-28T22:52:30.802Z,99612.94
2022-12-28T22:54:57.253Z,99613.31
2022-12-28T22:57:24.474Z,99550.59
2022-12-28T22:59:51.224Z,99600.38
2022-12-28T23:02:18.027Z,99590.31
2022-12-28T23:04:44.599Z,99574.28
2022-12-28T23:07:11.409Z,99605.34
2022-12-28T23:09:39.030Z,99618.88
2022-12-28T23:12:05.680Z,99612.97
2022-12-28T23:14:51.120Z,99568.34
2022-12-28T23:17:17.639Z,99608.38
2022-12-28T23:20:04.240Z,99614.94
2022-12-28T23:22:51.887Z,99602.28
2022-12-28T23:25:40.051Z,99602.84
2022-12-28T23:28:09.543Z,99598.84
2022-12-28T23:30:37.958Z,99619.75
2022-12-28T23:33:04.546Z,99601.09
2022-12-28T23:35:31.146Z,99604.41
2022-12-28T23:37:57.840Z,99545.59
2022-12-28T23:40:25.456Z,99565.06
2022-12-28T23:42:54.068Z,99594.31
2022-12-28T23:45:20.901Z,99620.13
2022-12-28T23:47:47.508Z,99543.19
2022-12-28T23:50:15.517Z,99585.72
2022-12-28T23:52:42.096Z,99581.91
2022-12-28T23:55:09.924Z,99577.97
2022-12-28T23:57:36.719Z,99570.75
